Time;durP1;ratioP1;P1;durP2;ratioP2;P2;SDS_P1;SDS_P2;PMS_P1;PMS_P2;Temp;Humidity;BMP_temperature;BMP_pressure;BME280_temperature;BME280_humidity;BME280_pressure;Samples;Min_cycle;Max_cycle;Signal;HPM_P1;HPM_P2
2021/01/15 00:01:22;;;;;;;23.60;14.30;;;;;;;-2.21;73.89;95663.00;5120343;27;20051;-55
2021/01/15 00:03:51;;;;;;;29.10;15.60;;;;;;;-2.20;73.28;95654.28;5111456;27;20050;-56
2021/01/15 00:06:21;;;;;;;24.40;14.98;;;;;;;-2.11;73.00;95669.69;5129786;27;20051;-56
2021/01/15 00:08:48;;;;;;;25.50;14.10;;;;;;;-2.08;72.81;95664.16;5133662;27;20051;-57
2021/01/15 00:11:17;;;;;;;23.05;14.00;;;;;;;-2.03;72.76;95664.41;5127399;27;20049;-56
2021/01/15 00:13:44;;;;;;;25.27;14.25;;;;;;;-2.03;73.00;95662.63;5092766;27;20049;-56
2021/01/15 00:16:26;;;;;;;27.67;16.48;;;;;;;-2.02;73.01;95664.22;5114487;27;20517;-56
2021/01/15 00:18:55;;;;;;;22.15;13.25;;;;;;;-2.02;72.77;95664.22;5131410;27;20426;-56
2021/01/15 00:21:34;;;;;;;24.23;13.20;;;;;;;-2.01;73.46;95671.00;5120356;27;20043;-56
2021/01/15 00:24:04;;;;;;;29.15;16.55;;;;;;;-2.08;73.74;95671.91;5129048;27;20046;-56
2021/01/15 00:26:34;;;;;;;26.65;15.68;;;;;;;-2.18;74.23;95670.41;5085750;27;20046;-56
2021/01/15 00:29:01;;;;;;;26.92;15.65;;;;;;;-2.17;74.10;95679.78;5104407;27;20047;-56
2021/01/15 00:31:33;;;;;;;24.70;15.52;;;;;;;-2.22;74.04;95674.34;5128547;27;20069;-56
2021/01/15 00:34:02;;;;;;;31.52;16.00;;;;;;;-2.28;74.76;95682.00;5113971;27;20062;-56
2021/01/15 00:36:30;;;;;;;26.75;15.60;;;;;;;-2.33;74.25;95683.34;5101557;27;20051;-56
2021/01/15 00:38:58;;;;;;;26.55;17.02;;;;;;;-2.29;74.60;95685.56;5131019;27;20042;-56
2021/01/15 00:41:25;;;;;;;26.48;15.35;;;;;;;-2.32;74.18;95678.97;5118303;27;20431;-56
2021/01/15 00:43:52;;;;;;;23.48;13.50;;;;;;;-2.30;74.10;95674.44;5117532;27;20047;-55
2021/01/15 00:46:32;;;;;;;28.17;16.15;;;;;;;-2.27;74.80;95686.19;5117154;27;20223;-56
2021/01/15 00:49:08;;;;;;;26.20;15.38;;;;;;;-2.18;73.93;95680.75;5104033;27;20070;-56
2021/01/15 00:51:38;;;;;;;25.45;16.00;;;;;;;-2.12;73.89;95688.75;5113643;27;20423;-56
2021/01/15 00:54:06;;;;;;;25.70;14.93;;;;;;;-2.18;73.90;95679.94;5115218;27;20042;-56
2021/01/15 00:56:36;;;;;;;25.73;15.52;;;;;;;-2.20;74.92;95676.72;5116096;27;20050;-56
2021/01/15 00:59:07;;;;;;;27.00;14.38;;;;;;;-2.26;75.00;95675.66;5115892;27;20441;-56
2021/01/15 01:01:46;;;;;;;23.67;14.32;;;;;;;-2.32;75.24;95679.78;5112411;27;20039;-55
2021/01/15 01:04:13;;;;;;;27.27;14.18;;;;;;;-2.32;74.59;95677.19;5103173;27;20054;-56
2021/01/15 01:06:40;;;;;;;28.88;16.85;;;;;;;-2.34;75.33;95670.59;5128332;27;20047;-56
2021/01/15 01:09:07;;;;;;;21.27;14.18;;;;;;;-2.34;75.04;95670.59;5095674;27;20046;-60
2021/01/15 01:11:35;;;;;;;25.67;16.20;;;;;;;-2.25;75.10;95673.91;5105420;27;20061;-55
2021/01/15 01:14:06;;;;;;;24.63;16.15;;;;;;;-2.21;75.01;95669.94;5127328;27;20047;-55
2021/01/15 01:16:33;;;;;;;27.42;15.63;;;;;;;-2.22;75.03;95674.34;5123863;27;20051;-55
2021/01/15 01:19:00;;;;;;;26.35;15.00;;;;;;;-2.22;75.01;95676.13;5119037;27;20046;-56
2021/01/15 01:21:28;;;;;;;19.88;12.65;;;;;;;-2.17;74.83;95674.59;5118921;27;20051;-55
2021/01/15 01:23:55;;;;;;;22.67;13.90;;;;;;;-2.19;74.73;95675.75;5115568;27;20047;-55
2021/01/15 01:26:22;;;;;;;23.55;14.32;;;;;;;-2.12;74.59;95675.81;5118399;27;20435;-55
2021/01/15 01:28:50;;;;;;;25.65;14.23;;;;;;;-2.17;75.15;95677.19;5104245;27;20047;-55
2021/01/15 01:31:18;;;;;;;27.88;15.25;;;;;;;-2.20;74.82;95681.88;5104737;27;20051;-56
2021/01/15 01:33:45;;;;;;;26.02;15.25;;;;;;;-2.28;75.72;95675.06;5129714;27;20053;-55
2021/01/15 01:36:13;;;;;;;25.20;14.30;;;;;;;-2.24;75.34;95676.28;5136365;27;20410;-56
2021/01/15 01:38:42;;;;;;;29.25;15.88;;;;;;;-2.21;75.02;95675.94;5132749;27;20051;-55
2021/01/15 01:41:10;;;;;;;26.27;14.73;;;;;;;-2.17;75.27;95679.78;5136448;27;20046;-56
2021/01/15 01:43:38;;;;;;;26.02;15.57;;;;;;;-2.17;75.38;95677.19;5110362;27;20078;-55
2021/01/15 01:46:06;;;;;;;25.58;15.05;;;;;;;-2.12;75.13;95681.00;5119696;27;20196;-55
2021/01/15 01:48:34;;;;;;;22.85;14.82;;;;;;;-2.10;75.61;95687.59;5114766;27;20054;-55
2021/01/15 01:51:03;;;;;;;24.45;15.85;;;;;;;-2.11;75.77;95685.19;5137805;27;20039;-55
2021/01/15 01:53:31;;;;;;;26.80;14.32;;;;;;;-2.09;75.50;95688.38;5117763;27;20047;-56
2021/01/15 01:56:02;;;;;;;23.58;13.48;;;;;;;-2.07;74.55;95686.44;5138682;27;20444;-55
2021/01/15 01:58:31;;;;;;;25.67;14.18;;;;;;;-2.03;75.07;95682.50;5135707;27;20038;-56
2021/01/15 02:01:01;;;;;;;23.60;14.55;;;;;;;-2.02;74.69;95694.41;5132754;27;20384;-55
2021/01/15 02:03:30;;;;;;;22.88;12.88;;;;;;;-2.03;74.76;95690.25;5111557;27;20054;-55
2021/01/15 02:05:57;;;;;;;25.15;14.35;;;;;;;-2.02;74.82;95694.41;5134327;27;20213;-55
2021/01/15 02:08:29;;;;;;;23.45;14.35;;;;;;;-2.00;75.25;95697.63;5134178;27;22814;-55
2021/01/15 02:11:25;;;;;;;26.80;15.23;;;;;;;-2.08;75.88;95703.69;5121388;27;20046;-56
2021/01/15 02:14:21;;;;;;;25.70;15.95;;;;;;;-2.21;76.32;95706.13;5084346;27;20058;-55
2021/01/15 02:16:50;;;;;;;20.48;12.65;;;;;;;-2.23;74.63;95702.94;5123382;27;20055;-55
2021/01/15 02:19:47;;;;;;;18.70;10.95;;;;;;;-2.21;73.30;95714.69;5121581;27;20051;-55
2021/01/15 02:22:23;;;;;;;16.67;9.65;;;;;;;-2.19;73.20;95715.31;5124268;27;20070;-55
2021/01/15 02:25:07;;;;;;;14.32;8.35;;;;;;;-2.15;73.74;95705.41;5096471;27;20043;-55
2021/01/15 02:28:05;;;;;;;17.60;10.15;;;;;;;-2.20;70.28;95711.13;5122373;27;20069;-55
2021/01/15 02:30:41;;;;;;;13.57;9.40;;;;;;;-2.19;71.20;95705.00;5121322;27;20057;-58
2021/01/15 02:33:18;;;;;;;17.10;8.43;;;;;;;-2.18;70.56;95701.44;5133470;27;20043;-55
2021/01/15 02:36:12;;;;;;;11.57;8.60;;;;;;;-2.15;68.73;95709.81;5101666;27;20047;-56
2021/01/15 02:38:50;;;;;;;12.35;8.07;;;;;;;-2.14;67.78;95716.53;5102367;27;20047;-56
2021/01/15 02:41:22;;;;;;;12.95;7.72;;;;;;;-2.20;67.04;95713.72;5097433;27;20054;-55
2021/01/15 02:43:55;;;;;;;13.18;7.28;;;;;;;-2.23;66.90;95716.66;5116579;27;20046;-55
2021/01/15 02:46:37;;;;;;;16.15;9.30;;;;;;;-2.27;65.82;95723.16;5135361;27;20054;-55
2021/01/15 02:49:05;;;;;;;15.23;8.32;;;;;;;-2.31;65.95;95727.09;5121746;27;20043;-55
2021/01/15 02:51:33;;;;;;;11.88;7.50;;;;;;;-2.35;66.01;95724.06;5111646;27;20375;-56
2021/01/15 02:54:00;;;;;;;12.80;6.95;;;;;;;-2.39;66.05;95734.91;5131277;27;20050;-54
2021/01/15 02:56:27;;;;;;;14.93;9.18;;;;;;;-2.42;65.44;95727.53;5113335;27;20971;-55
2021/01/15 02:58:55;;;;;;;14.07;8.25;;;;;;;-2.41;65.99;95731.72;5125625;27;20047;-56
2021/01/15 03:01:22;;;;;;;14.25;8.13;;;;;;;-2.45;65.75;95722.72;5131754;27;20047;-55
2021/01/15 03:04:12;;;;;;;12.35;7.97;;;;;;;-2.47;64.94;95733.25;5117098;27;20042;-56
2021/01/15 03:06:47;;;;;;;12.30;7.80;;;;;;;-2.54;65.87;95711.69;5134337;27;20050;-62
2021/01/15 03:09:14;;;;;;;14.30;7.53;;;;;;;-2.59;65.90;95719.97;5108210;27;20438;-55
2021/01/15 03:11:44;;;;;;;12.80;8.13;;;;;;;-2.48;65.85;95735.00;5089292;27;20043;-56
2021/01/15 03:14:16;;;;;;;13.35;8.88;;;;;;;-2.48;65.53;95726.47;5120622;27;20046;-56
2021/01/15 03:16:45;;;;;;;13.50;8.35;;;;;;;-2.50;64.74;95726.63;5135067;27;20662;-56
2021/01/15 03:19:13;;;;;;;13.65;8.43;;;;;;;-2.49;64.79;95732.63;5096217;27;20055;-56
2021/01/15 03:21:40;;;;;;;16.25;8.27;;;;;;;-2.48;64.58;95731.63;5132205;27;20047;-56
2021/01/15 03:24:08;;;;;;;15.85;9.48;;;;;;;-2.47;64.68;95731.44;5119346;27;20027;-55
2021/01/15 03:26:35;;;;;;;14.40;7.80;;;;;;;-2.49;63.33;95723.06;5119846;27;20055;-56
2021/01/15 03:29:02;;;;;;;14.45;8.30;;;;;;;-2.53;64.39;95737.34;5119363;27;20055;-56
2021/01/15 03:31:30;;;;;;;16.27;8.85;;;;;;;-2.55;63.48;95726.38;5096419;27;20065;-56
2021/01/15 03:33:59;;;;;;;12.98;7.97;;;;;;;-2.54;63.79;95733.16;5108542;27;20035;-56
2021/01/15 03:36:26;;;;;;;15.48;10.38;;;;;;;-2.60;64.54;95736.44;5112290;27;20666;-55
2021/01/15 03:38:54;;;;;;;16.30;8.30;;;;;;;-2.63;65.25;95729.84;5119645;27;20051;-61
2021/01/15 03:41:21;;;;;;;15.68;9.32;;;;;;;-2.64;64.03;95740.34;5132156;27;20043;-56
2021/01/15 03:43:48;;;;;;;14.18;8.95;;;;;;;-2.68;63.90;95734.72;5128597;27;20050;-56
2021/01/15 03:46:18;;;;;;;15.70;9.77;;;;;;;-2.67;65.00;95736.34;5133158;27;20046;-60
2021/01/15 03:48:46;;;;;;;13.48;9.10;;;;;;;-2.68;65.02;95741.69;5121815;27;20057;-56
2021/01/15 03:51:13;;;;;;;15.77;8.77;;;;;;;-2.68;64.74;95734.72;5133108;27;20922;-55
2021/01/15 03:53:44;;;;;;;14.98;9.40;;;;;;;-2.67;64.43;95746.66;5130862;27;20059;-55
2021/01/15 03:56:16;;;;;;;16.85;9.18;;;;;;;-2.76;62.58;95739.16;5121567;27;20035;-55
2021/01/15 03:58:44;;;;;;;14.60;8.23;;;;;;;-2.83;62.65;95745.03;5131679;27;20365;-56
2021/01/15 04:01:11;;;;;;;14.98;8.65;;;;;;;-2.88;63.50;95738.81;5114449;27;20054;-56
2021/01/15 04:03:38;;;;;;;14.57;8.63;;;;;;;-2.94;63.42;95732.56;5092272;27;20438;-56
2021/01/15 04:06:06;;;;;;;13.98;8.02;;;;;;;-2.97;62.53;95754.38;5131784;27;20058;-56
2021/01/15 04:08:34;;;;;;;10.88;8.68;;;;;;;-3.01;62.21;95758.25;5115109;27;20043;-56
2021/01/15 04:11:01;;;;;;;13.40;7.07;;;;;;;-3.08;62.52;95759.94;5118656;27;20521;-56
2021/01/15 04:13:29;;;;;;;17.23;9.63;;;;;;;-3.05;61.70;95754.41;5131226;27;20427;-56
2021/01/15 04:15:55;;;;;;;14.00;8.30;;;;;;;-3.14;61.90;95764.00;5116020;27;20043;-56
2021/01/15 04:18:23;;;;;;;13.68;7.70;;;;;;;-3.24;61.99;95763.44;5128595;27;20410;-56
2021/01/15 04:20:50;;;;;;;13.38;8.73;;;;;;;-3.25;63.16;95749.75;5117823;27;20050;-55
2021/01/15 04:23:17;;;;;;;16.10;8.27;;;;;;;-3.24;62.71;95750.53;5097102;27;20042;-56
2021/01/15 04:25:44;;;;;;;17.98;9.98;;;;;;;-3.23;63.62;95752.13;5130715;27;20459;-55
2021/01/15 04:28:11;;;;;;;16.45;9.68;;;;;;;-3.23;62.84;95754.72;5130061;27;20046;-56
2021/01/15 04:30:38;;;;;;;13.52;8.75;;;;;;;-3.26;63.03;95755.88;5132393;27;20063;-55
2021/01/15 04:33:06;;;;;;;17.10;9.13;;;;;;;-3.23;63.99;95761.66;5114958;27;20042;-56
2021/01/15 04:35:34;;;;;;;18.08;10.15;;;;;;;-3.31;63.21;95765.91;5129932;27;20402;-55
2021/01/15 04:38:01;;;;;;;18.83;10.10;;;;;;;-3.44;62.79;95769.06;5097082;27;20055;-56
2021/01/15 04:40:28;;;;;;;16.40;9.70;;;;;;;-3.40;63.59;95782.41;5064052;27;20078;-55
2021/01/15 04:43:00;;;;;;;15.25;9.07;;;;;;;-3.52;62.64;95782.00;5131139;27;20051;-55
2021/01/15 04:45:27;;;;;;;17.67;10.55;;;;;;;-3.50;63.80;95774.88;5125990;27;20062;-55
2021/01/15 04:48:02;;;;;;;18.58;10.35;;;;;;;-3.53;63.60;95780.41;5136754;27;20043;-55
2021/01/15 04:50:29;;;;;;;14.27;9.50;;;;;;;-3.50;64.10;95774.88;5141255;27;20057;-56
2021/01/15 04:53:04;;;;;;;17.45;10.05;;;;;;;-3.48;64.06;95778.09;5131905;27;20101;-56
2021/01/15 04:55:35;;;;;;;15.82;9.80;;;;;;;-3.45;64.20;95772.59;5138456;27;20043;-57
2021/01/15 04:58:05;;;;;;;15.75;10.10;;;;;;;-3.44;64.68;95786.28;5136770;27;20035;-61
2021/01/15 05:00:36;;;;;;;17.42;10.65;;;;;;;-3.40;64.97;95787.56;5118641;27;20058;-57
2021/01/15 05:03:05;;;;;;;20.67;8.90;;;;;;;-3.37;63.32;95794.16;5117179;27;20582;-56
2021/01/15 05:05:42;;;;;;;22.75;9.57;;;;;;;-3.38;63.48;95787.41;5134118;27;20047;-57
2021/01/15 05:08:14;;;;;;;16.52;10.60;;;;;;;-3.36;64.19;95786.25;5138022;27;20050;-55
2021/01/15 05:10:43;;;;;;;13.57;9.77;;;;;;;-3.43;63.84;95773.25;5123161;27;20414;-55
2021/01/15 05:13:16;;;;;;;18.20;10.90;;;;;;;-3.34;64.34;95780.91;5116599;27;20047;-61
2021/01/15 05:15:48;;;;;;;18.10;10.32;;;;;;;-3.36;63.42;95790.59;5132528;27;20054;-57
2021/01/15 05:18:17;;;;;;;19.40;9.63;;;;;;;-3.31;63.99;95796.06;5101806;27;20050;-57
2021/01/15 05:20:46;;;;;;;17.10;10.95;;;;;;;-3.33;64.15;95792.84;5132090;27;20419;-61
2021/01/15 05:23:15;;;;;;;15.68;9.48;;;;;;;-3.27;63.66;95792.97;5111759;27;20043;-56
2021/01/15 05:25:47;;;;;;;15.15;9.23;;;;;;;-3.26;62.78;95797.16;5105147;27;20546;-56
2021/01/15 05:28:16;;;;;;;16.08;9.75;;;;;;;-3.27;63.42;95795.53;5120700;27;20042;-56
2021/01/15 05:30:43;;;;;;;14.38;9.82;;;;;;;-3.27;63.37;95803.28;5135194;27;20055;-56
2021/01/15 05:33:13;;;;;;;16.38;9.32;;;;;;;-3.29;63.56;95788.97;5116786;27;20042;-56
2021/01/15 05:35:46;;;;;;;14.32;8.48;;;;;;;-3.31;63.54;95806.38;5130368;27;20283;-55
2021/01/15 05:38:15;;;;;;;19.65;10.93;;;;;;;-3.36;63.63;95806.06;5120605;27;20410;-55
2021/01/15 05:40:57;;;;;;;16.05;8.38;;;;;;;-3.36;63.91;95806.91;5107449;27;20051;-56
2021/01/15 05:43:33;;;;;;;14.65;8.82;;;;;;;-3.38;64.77;95811.41;5127113;27;20053;-59
2021/01/15 05:46:03;;;;;;;;;;;;;;;-3.38;64.75;95814.00;5133820;27;20054;-56
2021/01/15 05:48:31;;;;;;;13.75;8.45;;;;;;;-3.35;63.23;95807.69;5104020;27;19934;-56
2021/01/15 05:50:58;;;;;;;15.65;8.55;;;;;;;-3.36;63.05;95800.91;5136038;27;20043;-60
2021/01/15 05:53:25;;;;;;;17.27;10.18;;;;;;;-3.35;63.74;95802.53;5130215;27;20278;-59
2021/01/15 05:55:57;;;;;;;12.48;8.63;;;;;;;-3.44;63.94;95800.00;5129550;27;20043;-56
2021/01/15 05:58:24;;;;;;;16.45;8.55;;;;;;;-3.32;64.16;95813.28;5116656;27;20055;-57
2021/01/15 06:00:52;;;;;;;13.98;9.23;;;;;;;-3.31;64.58;95817.47;5116799;27;20067;-58
2021/01/15 06:03:22;;;;;;;18.02;10.15;;;;;;;-3.26;63.79;95812.63;5113132;27;20043;-56
2021/01/15 06:05:50;;;;;;;18.55;10.50;;;;;;;-3.22;63.70;95818.25;5118055;27;20047;-58
2021/01/15 06:08:17;;;;;;;18.88;10.25;;;;;;;-3.19;64.14;95819.66;5131296;27;20074;-56
2021/01/15 06:10:47;;;;;;;19.33;12.40;;;;;;;-3.16;64.35;95820.16;5134729;27;20054;-56
2021/01/15 06:13:38;;;;;;;20.35;11.07;;;;;;;-3.20;65.55;95825.81;5128772;27;20047;-56
2021/01/15 06:16:06;;;;;;;16.80;11.15;;;;;;;-3.19;66.24;95833.38;5095727;27;20058;-56
2021/01/15 06:18:33;;;;;;;17.50;10.77;;;;;;;-3.24;65.75;95833.09;5114107;27;20046;-57
2021/01/15 06:21:08;;;;;;;21.23;11.35;;;;;;;-3.30;65.99;95831.19;5097585;27;20063;-56
2021/01/15 06:23:41;;;;;;;22.48;13.63;;;;;;;-3.31;65.86;95834.75;5095165;27;20061;-56
2021/01/15 06:26:09;;;;;;;24.70;13.60;;;;;;;-3.31;65.71;95839.91;5131815;27;20050;-58
2021/01/15 06:28:38;;;;;;;24.17;11.93;;;;;;;-3.32;66.25;95846.03;5114936;27;20045;-56
2021/01/15 06:31:09;;;;;;;18.05;10.85;;;;;;;-3.26;66.77;95841.00;5098126;27;20311;-56
2021/01/15 06:33:37;;;;;;;21.60;13.27;;;;;;;-3.23;66.49;95842.44;5119627;27;20410;-55
2021/01/15 06:36:07;;;;;;;25.73;17.08;;;;;;;-3.26;66.68;95848.75;5093644;27;20051;-58
2021/01/15 06:38:36;;;;;;;33.83;19.85;;;;;;;-3.29;66.13;95853.44;5100158;27;20062;-58
2021/01/15 06:41:17;;;;;;;28.88;17.13;;;;;;;-3.30;66.95;95857.78;5100685;27;20051;-56
2021/01/15 06:43:45;;;;;;;29.85;18.30;;;;;;;-3.32;67.15;95858.94;5123628;27;20042;-55
2021/01/15 06:46:22;;;;;;;22.08;13.52;;;;;;;-3.38;67.42;95854.47;5097169;27;20061;-64
2021/01/15 06:49:02;;;;;;;20.10;12.10;;;;;;;-3.35;67.76;95864.44;5120649;27;20606;-57
2021/01/15 06:51:35;;;;;;;20.05;12.95;;;;;;;-3.40;68.01;95876.06;5125583;27;20592;-58
2021/01/15 06:54:06;;;;;;;24.20;13.20;;;;;;;-3.35;68.13;95869.59;5102842;27;20070;-58
2021/01/15 06:56:38;;;;;;;22.20;14.38;;;;;;;-3.29;67.94;95876.66;5109929;27;20051;-59
2021/01/15 06:59:14;;;;;;;21.67;14.20;;;;;;;-3.27;67.69;95875.50;5130746;27;20042;-57
2021/01/15 07:01:55;;;;;;;26.58;15.50;;;;;;;-3.23;68.06;95875.19;5105824;27;20051;-57
2021/01/15 07:04:28;;;;;;;27.13;15.35;;;;;;;-3.19;68.40;95879.81;5126557;27;20047;-56
2021/01/15 07:07:01;;;;;;;27.55;16.30;;;;;;;-3.17;68.47;95883.03;5120172;27;20418;-56
2021/01/15 07:09:30;;;;;;;26.08;15.18;;;;;;;-3.13;68.23;95884.28;5104924;27;20046;-62
2021/01/15 07:12:04;;;;;;;25.60;15.55;;;;;;;-3.10;67.61;95878.00;5127177;27;20043;-57
2021/01/15 07:14:48;;;;;;;24.73;14.27;;;;;;;-3.05;67.69;95886.03;5125928;27;20054;-57
2021/01/15 07:17:28;;;;;;;26.38;16.05;;;;;;;-3.05;68.23;95885.25;5124470;27;20483;-57
2021/01/15 07:20:16;;;;;;;22.35;13.57;;;;;;;-3.09;68.63;95890.72;5113822;27;20054;-57
2021/01/15 07:22:48;;;;;;;24.05;14.70;;;;;;;-3.18;69.50;95896.09;5114892;27;20107;-58
2021/01/15 07:25:17;;;;;;;25.60;13.73;;;;;;;-3.30;69.01;95887.94;5117101;27;20042;-57
2021/01/15 07:27:44;;;;;;;25.20;15.57;;;;;;;-3.28;70.31;95906.66;5123405;27;20065;-57
2021/01/15 07:30:31;;;;;;;26.80;16.67;;;;;;;-3.31;69.76;95909.56;5100440;27;20057;-56
2021/01/15 07:33:06;;;;;;;26.50;17.33;;;;;;;-3.34;70.53;95908.13;5095884;27;20143;-58
2021/01/15 07:35:36;;;;;;;25.95;15.57;;;;;;;-3.31;70.80;95904.41;5130443;27;20394;-59
2021/01/15 07:38:11;;;;;;;26.17;15.85;;;;;;;-3.19;69.96;95909.97;5117390;27;20050;-59
2021/01/15 07:40:40;;;;;;;27.30;15.30;;;;;;;-3.08;69.44;95914.78;5077901;27;20051;-58
2021/01/15 07:43:30;;;;;;;25.67;15.45;;;;;;;-2.96;69.58;95920.34;5111173;27;20042;-57
2021/01/15 07:46:04;;;;;;;29.40;17.42;;;;;;;-2.89;69.25;95925.63;5130403;27;20042;-58
2021/01/15 07:48:32;;;;;;;26.17;16.75;;;;;;;-2.89;68.85;95916.09;5110478;27;20054;-57
2021/01/15 07:51:10;;;;;;;23.85;14.68;;;;;;;-2.86;69.65;95920.91;5115185;27;20342;-57
2021/01/15 07:53:44;;;;;;;28.17;16.15;;;;;;;-2.82;69.49;95932.53;5130084;27;20062;-57
2021/01/15 07:56:12;;;;;;;31.48;17.77;;;;;;;-2.86;69.76;95926.09;5112545;27;20061;-58
2021/01/15 07:58:42;;;;;;;24.17;14.68;;;;;;;-2.79;70.13;95927.03;5127250;27;20049;-57
2021/01/15 08:01:17;;;;;;;23.60;14.23;;;;;;;-2.87;70.30;95924.47;5108396;27;20057;-58
2021/01/15 08:03:46;;;;;;;26.33;13.30;;;;;;;-2.86;70.25;95928.66;5122920;27;20047;-57
2021/01/15 08:06:16;;;;;;;23.60;13.40;;;;;;;-2.91;70.25;95930.97;5130919;27;20061;-58
2021/01/15 08:08:59;;;;;;;25.65;14.65;;;;;;;-2.90;71.39;95932.59;5118633;27;20046;-58
2021/01/15 08:11:32;;;;;;;20.58;12.85;;;;;;;-2.82;70.70;95927.34;5129212;27;20051;-57
2021/01/15 08:14:14;;;;;;;21.30;13.85;;;;;;;-2.86;70.39;95923.50;5100028;27;20058;-58
2021/01/15 08:16:43;;;;;;;28.08;16.30;;;;;;;-2.94;71.26;95924.34;5098284;27;20058;-58
2021/01/15 08:19:12;;;;;;;30.88;17.60;;;;;;;-3.00;72.08;95929.38;5117123;27;20050;-57
2021/01/15 08:21:44;;;;;;;23.67;15.32;;;;;;;-2.98;71.98;95933.44;5130447;27;20046;-57
2021/01/15 08:24:13;;;;;;;40.75;23.10;;;;;;;-3.04;71.54;95913.44;5125148;27;20481;-57
2021/01/15 08:26:56;;;;;;;39.45;20.38;;;;;;;-2.86;71.75;95923.50;5116405;27;20525;-57
2021/01/15 08:29:27;;;;;;;35.38;19.92;;;;;;;-2.84;71.29;95924.13;5124073;27;20093;-62
2021/01/15 08:31:57;;;;;;;30.08;15.95;;;;;;;-2.93;71.30;95930.34;5124402;27;20406;-62
2021/01/15 08:34:33;;;;;;;26.15;16.23;;;;;;;-2.98;71.09;95925.69;5112767;27;20044;-57
2021/01/15 08:37:04;;;;;;;34.38;20.35;;;;;;;-3.04;71.41;95926.34;5087598;27;20632;-58
2021/01/15 08:39:50;;;;;;;27.15;16.95;;;;;;;-2.95;71.22;95927.13;5103483;27;20062;-57
2021/01/15 08:42:18;;;;;;;27.52;18.20;;;;;;;-2.87;71.65;95924.47;5126683;27;22063;-59
2021/01/15 08:44:50;;;;;;;34.30;19.38;;;;;;;-2.76;71.47;95925.06;5125652;27;20050;-56
2021/01/15 08:47:20;;;;;;;23.15;14.55;;;;;;;-2.69;70.10;95929.34;5114996;27;20051;-56
2021/01/15 08:49:58;;;;;;;29.75;14.98;;;;;;;-2.63;69.79;95935.63;5131023;27;20043;-57
2021/01/15 08:52:32;;;;;;;20.88;12.00;;;;;;;-2.51;68.38;95942.00;5106471;27;20077;-58
2021/01/15 08:55:03;;;;;;;21.70;14.27;;;;;;;-2.42;68.65;95941.94;5125712;27;20050;-56
2021/01/15 08:57:30;;;;;;;27.95;15.70;;;;;;;-2.40;67.78;95952.91;5107752;27;20055;-57
2021/01/15 09:00:14;;;;;;;17.48;10.88;;;;;;;-2.37;65.27;95957.72;5107119;27;20133;-57
2021/01/15 09:02:48;;;;;;;12.35;8.48;;;;;;;-2.43;60.62;95966.16;5125422;27;20043;-61
2021/01/15 09:05:24;;;;;;;10.10;6.57;;;;;;;-2.34;61.17;95968.50;5115105;27;20679;-57
2021/01/15 09:07:53;;;;;;;13.13;8.27;;;;;;;-2.23;61.80;95969.09;5112568;27;20502;-56
2021/01/15 09:10:21;;;;;;;10.25;6.40;;;;;;;-2.17;55.18;95976.97;5080895;27;20055;-57
2021/01/15 09:12:49;;;;;;;10.18;5.93;;;;;;;-2.18;53.85;95984.88;5108667;27;20078;-58
2021/01/15 09:15:24;;;;;;;9.82;6.40;;;;;;;-2.23;53.90;95985.38;5100126;27;20143;-57
2021/01/15 09:17:52;;;;;;;10.27;5.90;;;;;;;-2.18;54.59;95985.69;5114861;27;20584;-57
2021/01/15 09:20:21;;;;;;;11.02;5.88;;;;;;;-2.05;54.75;95969.56;5133862;27;20084;-57
2021/01/15 09:22:48;;;;;;;11.35;6.78;;;;;;;-1.86;53.30;95972.66;5130636;27;20355;-57
2021/01/15 09:25:17;;;;;;;12.82;7.75;;;;;;;-1.84;53.76;95975.06;5116306;27;20150;-56
2021/01/15 09:27:45;;;;;;;13.70;8.07;;;;;;;-1.82;52.98;95970.53;5113415;27;20049;-57
2021/01/15 09:30:14;;;;;;;8.23;5.82;;;;;;;-1.67;51.55;95975.72;5099408;27;20043;-57
2021/01/15 09:32:43;;;;;;;12.27;6.97;;;;;;;-1.68;51.36;95980.09;5131850;27;20046;-57
2021/01/15 09:35:16;;;;;;;11.27;5.95;;;;;;;-1.62;51.17;95981.16;5106330;27;20047;-57
2021/01/15 09:37:43;;;;;;;13.15;7.68;;;;;;;-1.50;51.10;95984.09;5117464;27;20050;-58
2021/01/15 09:40:11;;;;;;;11.20;6.47;;;;;;;-1.45;50.57;95981.81;5120410;27;20054;-57
2021/01/15 09:42:38;;;;;;;9.93;6.15;;;;;;;-1.50;51.33;95989.28;5115317;27;20043;-58
2021/01/15 09:45:06;;;;;;;8.95;5.32;;;;;;;-1.45;50.29;95992.94;5113478;27;20050;-57
2021/01/15 09:47:34;;;;;;;13.18;7.82;;;;;;;-1.36;50.83;95991.06;5111968;27;20043;-57
2021/01/15 09:50:03;;;;;;;15.40;10.07;;;;;;;-1.31;50.97;95995.72;5122164;27;20043;-63
2021/01/15 09:52:36;;;;;;;11.65;6.80;;;;;;;-1.33;48.34;95967.44;5133523;27;20043;-57
2021/01/15 09:55:05;;;;;;;12.23;7.13;;;;;;;-1.26;50.35;95972.69;5136884;27;20437;-57
2021/01/15 09:57:42;;;;;;;11.30;6.43;;;;;;;-1.17;47.54;95974.19;5117196;27;20046;-56
2021/01/15 10:00:12;;;;;;;13.48;6.55;;;;;;;-1.36;49.06;95967.78;5118050;27;20054;-58
2021/01/15 10:02:39;;;;;;;9.23;6.55;;;;;;;-1.39;48.33;95962.97;5125695;27;20154;-56
2021/01/15 10:05:07;;;;;;;9.40;6.07;;;;;;;-1.51;47.65;95970.38;5120600;27;20043;-57
2021/01/15 10:07:35;;;;;;;12.75;7.15;;;;;;;-1.43;48.29;95972.09;5103535;27;20678;-56
2021/01/15 10:10:02;;;;;;;13.25;7.22;;;;;;;-1.48;48.19;95964.84;5135694;27;20491;-57
2021/01/15 10:12:29;;;;;;;12.40;6.70;;;;;;;-1.57;48.29;95956.38;5111927;27;20050;-56
2021/01/15 10:14:57;;;;;;;13.75;6.97;;;;;;;-1.72;48.40;95958.13;5136586;27;20066;-57
2021/01/15 10:17:24;;;;;;;11.93;6.68;;;;;;;-1.64;48.35;95959.84;5141689;27;20055;-56
2021/01/15 10:19:52;;;;;;;13.90;6.78;;;;;;;-1.71;48.81;95949.41;5108212;27;20047;-57
2021/01/15 10:22:19;;;;;;;12.93;6.85;;;;;;;-1.86;47.57;95950.19;5122353;27;20047;-57
2021/01/15 10:24:46;;;;;;;8.88;6.20;;;;;;;-1.92;48.11;95957.84;5103709;27;20265;-57
2021/01/15 10:27:13;;;;;;;13.18;6.32;;;;;;;-2.07;47.43;95963.00;5105548;27;20058;-57
2021/01/15 10:29:41;;;;;;;12.85;7.43;;;;;;;-2.20;48.16;95963.56;5129164;27;20047;-57
2021/01/15 10:32:08;;;;;;;12.40;6.22;;;;;;;-2.33;47.71;95961.56;5132266;27;20299;-58
2021/01/15 10:34:35;;;;;;;9.38;5.45;;;;;;;-2.28;48.24;95967.03;5135082;27;20039;-57
2021/01/15 10:37:03;;;;;;;9.98;5.25;;;;;;;-2.30;48.16;95968.16;5113324;27;20275;-57
2021/01/15 10:39:30;;;;;;;13.45;8.02;;;;;;;-2.36;48.75;95967.06;5100282;27;20049;-57
2021/01/15 10:41:57;;;;;;;10.20;6.05;;;;;;;-2.39;47.70;95972.59;5119287;27;20047;-57
2021/01/15 10:44:27;;;;;;;6.15;3.58;;;;;;;-2.24;46.75;95967.50;5096485;27;20051;-57
2021/01/15 10:46:54;;;;;;;10.45;3.85;;;;;;;-2.12;45.84;95973.03;5139235;27;20042;-57
2021/01/15 10:49:24;;;;;;;8.68;4.22;;;;;;;-2.10;46.39;95987.41;5131827;27;20065;-57
2021/01/15 10:51:54;;;;;;;5.95;3.85;;;;;;;-2.43;43.51;95990.22;5103475;27;20069;-56
2021/01/15 10:54:22;;;;;;;7.95;4.40;;;;;;;-2.67;44.07;95996.34;5110778;27;20498;-56
2021/01/15 10:56:51;;;;;;;6.32;3.92;;;;;;;-2.67;44.03;96001.50;5115627;27;20031;-57
2021/01/15 10:59:20;;;;;;;4.13;2.88;;;;;;;-2.86;43.50;96010.47;5124057;27;20054;-57
2021/01/15 11:01:49;;;;;;;8.98;3.10;;;;;;;-2.83;44.40;96002.41;5137373;27;20055;-59
2021/01/15 11:04:18;;;;;;;4.78;3.88;;;;;;;-2.83;45.86;96028.22;5122056;27;20414;-57
2021/01/15 11:06:52;;;;;;;5.63;3.80;;;;;;;-2.81;45.31;96016.75;5116697;27;20045;-56
2021/01/15 11:09:22;;;;;;;8.90;5.50;;;;;;;-2.86;45.48;96002.72;5110753;27;20042;-58
2021/01/15 11:12:06;;;;;;;;;;;;;;;-2.85;46.19;96019.84;5131525;27;20513;-58
2021/01/15 11:14:35;;;;;;;6.85;3.47;;;;;;;-2.88;44.72;96015.78;5117881;27;19927;-59
2021/01/15 11:17:05;;;;;;;5.93;4.22;;;;;;;-3.15;45.89;96010.13;5100195;27;20395;-57
2021/01/15 11:19:33;;;;;;;8.25;4.07;;;;;;;-3.56;46.76;96008.44;5123433;27;20043;-59
2021/01/15 11:22:00;;;;;;;7.82;4.38;;;;;;;-3.37;46.93;96005.66;5115971;27;20415;-57
2021/01/15 11:24:29;;;;;;;7.35;4.05;;;;;;;-3.51;46.56;96032.94;5133910;27;20051;-58
2021/01/15 11:26:56;;;;;;;8.38;4.47;;;;;;;-3.55;47.52;95998.94;5127629;27;20035;-58
2021/01/15 11:29:24;;;;;;;6.93;5.28;;;;;;;-3.44;45.73;96011.47;5117460;27;20273;-57
2021/01/15 11:31:51;;;;;;;5.30;4.03;;;;;;;-3.46;45.79;95997.16;5112713;27;20513;-57
2021/01/15 11:34:21;;;;;;;5.60;4.30;;;;;;;-3.43;45.43;96013.09;5115800;27;20047;-57
2021/01/15 11:36:50;;;;;;;6.55;3.55;;;;;;;-3.66;44.37;95997.50;5130692;27;20497;-57
2021/01/15 11:39:17;;;;;;;5.22;4.10;;;;;;;-3.91;45.52;95991.59;5103999;27;20050;-57